Time;durP1;ratioP1;P1;durP2;ratioP2;P2;SDS_P1;SDS_P2;PMS_P1;PMS_P2;Temp;Humidity;BMP_temperature;BMP_pressure;BME280_temperature;BME280_humidity;BME280_pressure;Samples;Min_cycle;Max_cycle;Signal;HPM_P1;HPM_P2
2022/09/09 00:02:00;;;;;;;12.52;5.65;;;;;;;18.96;100.00;99269.91;5011629;28;20018;-84
2022/09/09 00:04:30;;;;;;;9.82;5.07;;;;;;;19.08;100.00;99280.06;5012204;28;20033;-84
2022/09/09 00:07:17;;;;;;;13.95;9.55;;;;;;;18.82;100.00;99278.72;5012161;28;20387;-85
2022/09/09 00:09:59;;;;;;;10.73;8.13;;;;;;;19.07;100.00;99283.72;5001767;28;20030;-84
2022/09/09 00:12:42;;;;;;;15.95;8.93;;;;;;;18.91;100.00;99285.56;4992313;28;20033;-84
2022/09/09 00:15:13;;;;;;;15.15;8.98;;;;;;;19.01;100.00;99293.25;5008091;28;20483;-84
2022/09/09 00:18:01;;;;;;;14.63;8.45;;;;;;;18.96;100.00;99285.03;5012121;28;20511;-84
2022/09/09 00:20:57;;;;;;;12.15;7.82;;;;;;;19.20;100.00;99294.53;5012058;28;20034;-83
2022/09/09 00:23:29;;;;;;;12.07;7.57;;;;;;;19.30;100.00;99292.38;5011561;28;20065;-84
2022/09/09 00:26:32;;;;;;;13.23;8.07;;;;;;;19.23;100.00;99294.13;4992371;28;20045;-84
2022/09/09 00:29:09;;;;;;;15.48;9.00;;;;;;;19.06;100.00;99303.38;4992569;28;20023;-84
2022/09/09 00:31:37;;;;;;;9.60;7.00;;;;;;;19.22;100.00;99295.16;4991642;28;20028;-84
2022/09/09 00:34:12;;;;;;;11.43;7.25;;;;;;;19.28;100.00;99291.75;4992296;28;20031;-85
2022/09/09 00:36:38;;;;;;;22.40;8.82;;;;;;;19.03;100.00;99301.88;4992215;28;20038;-83
2022/09/09 00:39:04;;;;;;;21.10;9.50;;;;;;;18.92;100.00;99297.88;4992325;28;20028;-83
2022/09/09 00:41:35;;;;;;;16.75;9.40;;;;;;;18.92;100.00;99297.06;4992176;28;20022;-84
2022/09/09 00:44:18;;;;;;;16.30;9.10;;;;;;;18.91;100.00;99298.88;4993089;28;20065;-84
2022/09/09 00:46:59;;;;;;;12.65;8.80;;;;;;;18.95;100.00;99302.81;5011796;28;20026;-84
2022/09/09 00:49:31;;;;;;;14.57;9.93;;;;;;;18.89;100.00;99308.88;5011777;28;20053;-83
2022/09/09 00:52:24;;;;;;;11.98;8.25;;;;;;;19.26;100.00;99303.59;5011588;28;20025;-84
2022/09/09 00:54:52;;;;;;;11.20;8.63;;;;;;;19.43;100.00;99305.00;5011652;28;20037;-84
2022/09/09 00:57:31;;;;;;;14.70;9.10;;;;;;;19.42;100.00;99295.38;5011608;28;20061;-84
2022/09/09 01:00:19;;;;;;;15.40;8.27;;;;;;;19.38;100.00;99304.75;5009603;28;20037;-84
2022/09/09 01:03:17;;;;;;;15.00;7.93;;;;;;;19.15;100.00;99311.03;5011148;28;20037;-84
2022/09/09 01:05:58;;;;;;;12.80;8.05;;;;;;;18.58;100.00;99314.34;5011651;28;20050;-84
2022/09/09 01:08:42;;;;;;;13.02;7.78;;;;;;;18.68;100.00;99308.75;5011499;28;20468;-84
2022/09/09 01:11:15;;;;;;;15.63;7.43;;;;;;;18.95;100.00;99318.78;5011753;28;20060;-84
2022/09/09 01:13:42;;;;;;;12.13;6.90;;;;;;;19.08;100.00;99315.47;5012586;28;20480;-85
2022/09/09 01:16:13;;;;;;;14.63;7.40;;;;;;;18.88;100.00;99320.53;5012857;28;20030;-84
2022/09/09 01:18:49;;;;;;;9.03;5.17;;;;;;;19.21;100.00;99320.09;5015216;28;20075;-84
2022/09/09 01:21:50;;;;;;;12.02;5.65;;;;;;;19.20;100.00;99316.63;5015157;28;20026;-84
2022/09/09 01:24:40;;;;;;;8.75;5.60;;;;;;;19.17;100.00;99314.34;5015183;28;20052;-84
2022/09/09 01:27:07;;;;;;;8.57;4.93;;;;;;;18.91;100.00;99320.16;5012303;28;20495;-85
2022/09/09 01:29:33;;;;;;;7.82;5.70;;;;;;;18.75;100.00;99317.66;5010286;28;20029;-84
2022/09/09 01:32:01;;;;;;;13.05;5.63;;;;;;;18.50;100.00;99312.59;5014893;28;20022;-84
2022/09/09 01:34:38;;;;;;;11.23;5.07;;;;;;;18.64;100.00;99324.25;5014773;28;20040;-84
2022/09/09 01:37:10;;;;;;;10.00;5.32;;;;;;;18.56;100.00;99327.00;5014979;28;20034;-84
2022/09/09 01:39:38;;;;;;;9.95;5.50;;;;;;;18.54;100.00;99331.66;5013836;28;20076;-84
2022/09/09 01:42:06;;;;;;;11.18;5.20;;;;;;;18.51;100.00;99335.53;5014831;28;20061;-85
2022/09/09 01:44:32;;;;;;;10.45;6.05;;;;;;;18.48;100.00;99343.03;5005698;28;20064;-84
2022/09/09 01:46:58;;;;;;;6.43;4.90;;;;;;;18.48;100.00;99340.38;5014548;28;20475;-84
2022/09/09 01:49:24;;;;;;;8.13;5.10;;;;;;;18.59;100.00;99340.75;5013383;28;20026;-84
2022/09/09 01:51:53;;;;;;;7.82;4.75;;;;;;;18.58;100.00;99347.09;5015033;28;20045;-84
2022/09/09 01:54:21;;;;;;;12.57;5.07;;;;;;;18.73;100.00;99348.94;5014076;28;20607;-84
2022/09/09 01:56:46;;;;;;;11.57;5.38;;;;;;;18.42;100.00;99345.44;5014267;28;20204;-85
2022/09/09 01:59:44;;;;;;;9.18;4.70;;;;;;;18.40;100.00;99350.09;5013617;28;20173;-84
2022/09/09 02:02:12;;;;;;;8.35;4.82;;;;;;;18.07;100.00;99349.56;5014234;28;20065;-84
2022/09/09 02:04:50;;;;;;;13.45;5.28;;;;;;;18.20;100.00;99349.75;5014306;28;20029;-85
2022/09/09 02:07:51;;;;;;;12.55;5.15;;;;;;;18.21;100.00;99351.41;5014290;28;20044;-84
2022/09/09 02:10:20;;;;;;;11.95;4.93;;;;;;;17.83;100.00;99354.06;5013018;28;20033;-84
2022/09/09 02:12:52;;;;;;;6.53;4.25;;;;;;;17.88;100.00;99350.84;5013870;28;20029;-84
2022/09/09 02:15:35;;;;;;;20.17;5.47;;;;;;;17.99;100.00;99350.44;5012667;28;20454;-85
2022/09/09 02:18:07;;;;;;;10.65;5.35;;;;;;;17.91;100.00;99350.50;5012720;28;20913;-84
2022/09/09 02:20:34;;;;;;;10.13;4.55;;;;;;;17.94;100.00;99357.28;5013994;28;20539;-84
2022/09/09 02:23:01;;;;;;;9.20;5.30;;;;;;;17.89;100.00;99355.19;5012860;28;20034;-84
2022/09/09 02:25:30;;;;;;;12.30;5.22;;;;;;;17.75;100.00;99359.38;5013563;28;20026;-83
2022/09/09 02:27:58;;;;;;;8.85;3.83;;;;;;;18.04;100.00;99364.00;5013769;28;20021;-84
2022/09/09 02:30:24;;;;;;;11.18;4.38;;;;;;;17.62;100.00;99373.22;5014180;28;20030;-84
2022/09/09 02:32:56;;;;;;;8.05;4.20;;;;;;;17.92;100.00;99372.56;5010351;28;20034;-84
2022/09/09 02:35:24;;;;;;;8.60;3.67;;;;;;;18.09;100.00;99371.44;5012674;28;20488;-84
2022/09/09 02:37:53;;;;;;;7.65;3.92;;;;;;;18.12;100.00;99365.78;5013741;28;20403;-84
2022/09/09 02:40:18;;;;;;;6.03;3.67;;;;;;;18.23;100.00;99369.84;5013686;28;20029;-84
2022/09/09 02:42:46;;;;;;;8.45;4.63;;;;;;;18.07;100.00;99367.31;5012459;28;20034;-84
2022/09/09 02:45:15;;;;;;;6.95;3.75;;;;;;;17.98;100.00;99363.91;4994384;28;20084;-85
2022/09/09 02:48:08;;;;;;;8.10;3.60;;;;;;;18.14;100.00;99369.06;5005599;28;20029;-85
2022/09/09 02:50:43;;;;;;;10.57;3.92;;;;;;;18.06;100.00;99373.63;5012252;28;20076;-85
2022/09/09 02:53:24;;;;;;;6.05;4.05;;;;;;;18.11;100.00;99371.25;5012131;28;20030;-85
2022/09/09 02:55:58;;;;;;;10.87;4.10;;;;;;;18.12;100.00;99376.41;5013238;28;20030;-85
2022/09/09 02:58:25;;;;;;;6.70;2.92;;;;;;;17.85;100.00;99369.78;5012299;28;20113;-84
2022/09/09 03:00:51;;;;;;;6.35;2.88;;;;;;;18.15;100.00;99368.09;5012214;28;20057;-85
2022/09/09 03:03:17;;;;;;;5.05;2.50;;;;;;;18.23;100.00;99381.28;5013303;28;20332;-85
2022/09/09 03:05:44;;;;;;;8.50;3.90;;;;;;;18.22;100.00;99384.13;5012010;28;20468;-85
2022/09/09 03:08:10;;;;;;;6.72;2.55;;;;;;;18.27;100.00;99380.94;5006982;28;20076;-85
2022/09/09 03:10:36;;;;;;;5.30;2.20;;;;;;;18.34;100.00;99384.53;5012721;28;20026;-85
2022/09/09 03:13:04;;;;;;;6.85;2.70;;;;;;;18.30;100.00;99400.00;5013047;28;20047;-85
2022/09/09 03:15:30;;;;;;;3.92;2.50;;;;;;;18.25;100.00;99405.03;5005408;28;20109;-86
2022/09/09 03:17:56;;;;;;;7.95;2.65;;;;;;;18.19;100.00;99409.22;4991979;28;20026;-85
2022/09/09 03:20:26;;;;;;;6.53;2.55;;;;;;;18.20;100.00;99408.22;4993298;28;20061;-86
2022/09/09 03:22:53;;;;;;;4.45;2.50;;;;;;;18.37;100.00;99408.91;5001058;28;20034;-85
2022/09/09 03:25:19;;;;;;;8.27;2.72;;;;;;;18.34;100.00;99406.59;5012607;28;20022;-85
2022/09/09 03:27:45;;;;;;;6.38;2.40;;;;;;;18.33;100.00;99402.31;5012741;28;20026;-86
2022/09/09 03:30:10;;;;;;;8.63;2.42;;;;;;;18.37;100.00;99408.91;5012804;28;20028;-85
2022/09/09 03:32:36;;;;;;;5.60;2.95;;;;;;;18.38;100.00;99401.75;5012372;28;20049;-85
2022/09/09 03:35:02;;;;;;;9.80;2.70;;;;;;;18.28;100.00;99403.84;5012781;28;20105;-85
2022/09/09 03:37:27;;;;;;;4.40;2.08;;;;;;;18.31;100.00;99398.19;4997852;28;20030;-84
2022/09/09 03:39:54;;;;;;;6.32;2.83;;;;;;;18.33;100.00;99401.47;4993026;28;20074;-85
2022/09/09 03:42:20;;;;;;;5.35;2.83;;;;;;;18.38;100.00;99410.59;4993254;28;20023;-85
2022/09/09 03:44:49;;;;;;;3.85;1.67;;;;;;;18.41;100.00;99418.19;4993009;28;20109;-85
2022/09/09 03:47:17;;;;;;;2.40;1.48;;;;;;;18.39;100.00;99419.38;4993744;28;20030;-84
2022/09/09 03:49:43;;;;;;;8.30;2.38;;;;;;;18.28;100.00;99409.16;5012658;28;20018;-84
2022/09/09 03:52:08;;;;;;;4.45;1.90;;;;;;;18.34;100.00;99419.06;5011413;28;20037;-84
2022/09/09 03:54:34;;;;;;;6.95;2.40;;;;;;;18.48;100.00;99420.13;5012339;28;20296;-84
2022/09/09 03:57:00;;;;;;;4.03;2.08;;;;;;;18.54;100.00;99417.59;5012264;28;20049;-84
2022/09/09 03:59:26;;;;;;;8.88;1.98;;;;;;;18.65;100.00;99416.31;5012280;28;20424;-85
2022/09/09 04:01:51;;;;;;;5.50;2.50;;;;;;;18.61;100.00;99423.00;5012374;28;20109;-85
2022/09/09 04:04:17;;;;;;;2.97;1.58;;;;;;;18.58;100.00;99426.84;5012216;28;20468;-84
2022/09/09 04:06:42;;;;;;;3.10;1.48;;;;;;;18.58;100.00;99431.31;5001214;28;20140;-84
2022/09/09 04:09:07;;;;;;;3.53;2.08;;;;;;;18.57;100.00;99438.47;4992525;28;20045;-84
2022/09/09 04:11:33;;;;;;;6.32;2.35;;;;;;;18.60;100.00;99430.16;4992480;28;20026;-84
2022/09/09 04:13:59;;;;;;;12.68;2.60;;;;;;;18.30;100.00;99428.41;4992481;28;20046;-85
2022/09/09 04:16:24;;;;;;;7.00;2.10;;;;;;;18.31;100.00;99436.19;4992645;28;20065;-84
2022/09/09 04:18:50;;;;;;;7.25;2.53;;;;;;;18.17;100.00;99439.63;5007291;28;20030;-84
2022/09/09 04:21:16;;;;;;;8.25;2.28;;;;;;;18.32;100.00;99432.53;5002588;28;20484;-85
2022/09/09 04:23:41;;;;;;;5.63;2.17;;;;;;;18.39;100.00;99436.13;4992455;28;20023;-86
2022/09/09 04:26:06;;;;;;;7.30;1.98;;;;;;;18.32;100.00;99431.72;4992403;28;20022;-85
2022/09/09 04:28:35;;;;;;;6.65;2.33;;;;;;;18.37;100.00;99438.16;4992234;28;20023;-84
2022/09/09 04:31:23;;;;;;;4.88;2.10;;;;;;;18.46;100.00;99428.25;4992600;28;20053;-84
2022/09/09 04:33:49;;;;;;;5.13;1.42;;;;;;;18.43;100.00;99444.59;5008142;28;20033;-84
2022/09/09 04:36:14;;;;;;;4.35;1.85;;;;;;;18.48;100.00;99439.53;5000265;28;20041;-84
2022/09/09 04:38:40;;;;;;;5.15;2.03;;;;;;;18.40;100.00;99445.78;4990662;28;20034;-84
2022/09/09 04:41:06;;;;;;;4.45;1.92;;;;;;;18.48;100.00;99449.34;4992035;28;20034;-84
2022/09/09 04:43:31;;;;;;;4.25;2.15;;;;;;;18.27;100.00;99444.72;4992030;28;20046;-85
2022/09/09 04:45:59;;;;;;;9.10;2.83;;;;;;;18.47;100.00;99447.72;4991040;28;20022;-84
2022/09/09 04:48:25;;;;;;;5.68;2.50;;;;;;;18.52;100.00;99447.97;4994457;28;20026;-85
2022/09/09 04:51:02;;;;;;;9.98;2.55;;;;;;;18.53;100.00;99444.34;5013333;28;20118;-85
2022/09/09 04:53:28;;;;;;;4.40;1.67;;;;;;;18.57;100.00;99451.75;5015763;28;20459;-84
2022/09/09 04:56:21;;;;;;;7.57;2.10;;;;;;;18.49;100.00;99456.34;5015519;28;20054;-85
2022/09/09 04:58:46;;;;;;;6.35;1.70;;;;;;;18.53;100.00;99458.44;5015416;28;20531;-85
2022/09/09 05:01:18;;;;;;;5.50;2.25;;;;;;;18.55;100.00;99459.09;5014414;28;20034;-85
2022/09/09 05:03:47;;;;;;;4.38;1.95;;;;;;;18.26;100.00;99464.31;5014815;28;20050;-85
2022/09/09 05:06:19;;;;;;;9.60;2.30;;;;;;;18.40;100.00;99463.53;4999645;28;20039;-85
2022/09/09 05:08:44;;;;;;;8.85;1.92;;;;;;;17.96;100.00;99459.69;4994497;28;20037;-85
2022/09/09 05:11:18;;;;;;;9.60;2.08;;;;;;;18.26;100.00;99469.63;4995596;28;20027;-85
2022/09/09 05:13:44;;;;;;;3.22;1.80;;;;;;;18.09;100.00;99467.09;4995738;28;20033;-85
2022/09/09 05:16:13;;;;;;;6.35;1.90;;;;;;;18.16;100.00;99464.53;4996648;28;20029;-85
2022/09/09 05:18:39;;;;;;;10.63;3.42;;;;;;;18.11;100.00;99475.69;5014875;28;20030;-85
2022/09/09 05:21:06;;;;;;;11.23;3.10;;;;;;;18.14;100.00;99477.16;4997414;28;20057;-89
2022/09/09 05:23:32;;;;;;;3.97;1.67;;;;;;;18.22;100.00;99475.28;4995430;28;20109;-85
2022/09/09 05:25:58;;;;;;;9.50;2.10;;;;;;;18.19;100.00;99478.31;4995566;28;20080;-85
2022/09/09 05:28:25;;;;;;;4.60;1.58;;;;;;;18.04;100.00;99477.41;5009308;28;20034;-85
2022/09/09 05:31:05;;;;;;;4.60;1.50;;;;;;;17.72;100.00;99475.72;5015065;28;20103;-85
2022/09/09 05:33:31;;;;;;;3.58;1.40;;;;;;;17.93;100.00;99485.75;5011736;28;20032;-85
2022/09/09 05:36:14;;;;;;;5.88;1.67;;;;;;;17.65;100.00;99483.53;5012753;28;20025;-88
2022/09/09 05:38:40;;;;;;;8.93;1.80;;;;;;;17.96;100.00;99485.41;5013873;28;20022;-85
2022/09/09 05:41:07;;;;;;;9.35;1.58;;;;;;;18.04;100.00;99493.34;5014776;28;20024;-85
2022/09/09 05:43:35;;;;;;;8.52;1.50;;;;;;;17.92;100.00;99484.94;5014348;28;20022;-85
2022/09/09 05:46:07;;;;;;;4.78;1.20;;;;;;;17.97;100.00;99492.38;5014976;28;20407;-85
2022/09/09 05:48:38;;;;;;;7.45;1.30;;;;;;;17.99;100.00;99506.28;5013778;28;20050;-85
2022/09/09 05:51:04;;;;;;;6.95;1.65;;;;;;;18.13;100.00;99499.44;5014530;28;20030;-85
2022/09/09 05:53:37;;;;;;;5.47;1.30;;;;;;;18.15;100.00;99503.56;5013636;28;20030;-86
2022/09/09 05:56:05;;;;;;;5.15;1.40;;;;;;;18.36;100.00;99516.19;5014591;28;20056;-86
2022/09/09 05:58:34;;;;;;;5.70;1.35;;;;;;;18.36;100.00;99512.72;5014588;28;20026;-86
2022/09/09 06:01:11;;;;;;;4.30;1.40;;;;;;;18.37;100.00;99520.53;5013866;28;20077;-85
2022/09/09 06:03:38;;;;;;;4.97;1.20;;;;;;;18.37;100.00;99525.03;5007071;28;20497;-86
2022/09/09 06:06:07;;;;;;;6.82;1.77;;;;;;;18.46;100.00;99529.25;5012113;28;20034;-86
2022/09/09 06:08:34;;;;;;;3.65;1.02;;;;;;;18.33;100.00;99523.72;5011570;28;20079;-86
2022/09/09 06:11:07;;;;;;;3.72;1.10;;;;;;;18.55;100.00;99522.88;5014077;28;20439;-86
2022/09/09 06:13:33;;;;;;;5.72;1.30;;;;;;;18.52;100.00;99536.56;5004845;28;20034;-86
2022/09/09 06:15:59;;;;;;;6.05;1.67;;;;;;;18.47;100.00;99532.78;5002111;28;20435;-86
2022/09/09 06:18:25;;;;;;;4.32;1.10;;;;;;;18.62;100.00;99529.16;5013077;28;20026;-86
2022/09/09 06:21:00;;;;;;;6.85;1.23;;;;;;;18.61;100.00;99529.34;5010527;28;20026;-86
2022/09/09 06:23:26;;;;;;;5.20;1.02;;;;;;;18.53;100.00;99538.19;4998211;28;20030;-86
2022/09/09 06:26:00;;;;;;;4.78;0.95;;;;;;;18.78;100.00;99535.38;5009875;28;20034;-86
2022/09/09 06:28:25;;;;;;;8.10;1.45;;;;;;;18.45;100.00;99538.25;5010011;28;20473;-86
2022/09/09 06:30:58;;;;;;;5.00;0.88;;;;;;;18.66;100.00;99550.91;5008280;28;20045;-86
2022/09/09 06:33:23;;;;;;;4.28;1.33;;;;;;;18.77;100.00;99552.31;5012109;28;20040;-85
2022/09/09 06:35:53;;;;;;;3.70;1.00;;;;;;;18.67;100.00;99549.06;5013850;28;20022;-85
2022/09/09 06:38:19;;;;;;;3.10;1.27;;;;;;;18.85;100.00;99552.28;5013856;28;20519;-86
2022/09/09 06:40:52;;;;;;;3.20;1.20;;;;;;;18.93;100.00;99551.38;5013366;28;20025;-85
2022/09/09 06:43:19;;;;;;;6.53;2.25;;;;;;;19.21;100.00;99560.44;5011088;28;20369;-86
2022/09/09 06:45:59;;;;;;;3.88;1.30;;;;;;;19.55;100.00;99556.44;5012488;28;20599;-85
2022/09/09 06:48:25;;;;;;;4.88;1.10;;;;;;;19.81;100.00;99558.66;5013406;28;20104;-85
2022/09/09 06:51:00;;;;;;;7.60;1.98;;;;;;;19.94;100.00;99559.84;5013499;28;20026;-85
2022/09/09 06:53:25;;;;;;;5.47;1.30;;;;;;;20.01;100.00;99560.75;4993908;28;20033;-85
2022/09/09 06:55:51;;;;;;;9.70;1.45;;;;;;;20.10;100.00;99557.00;4996805;28;20026;-86
2022/09/09 06:58:17;;;;;;;7.97;1.65;;;;;;;20.30;100.00;99551.88;5016732;28;20022;-85
2022/09/09 07:00:42;;;;;;;6.00;1.58;;;;;;;20.82;100.00;99565.97;4998143;28;20099;-85
2022/09/09 07:03:07;;;;;;;15.27;3.38;;;;;;;20.74;100.00;99556.25;5011149;28;20026;-86
2022/09/09 07:05:32;;;;;;;4.85;1.05;;;;;;;20.25;100.00;99558.78;5013052;28;20127;-86
2022/09/09 07:07:58;;;;;;;7.90;1.50;;;;;;;19.99;100.00;99565.44;4996672;28;20623;-86
2022/09/09 07:10:24;;;;;;;10.20;1.40;;;;;;;20.01;100.00;99563.41;4994344;28;20029;-85
2022/09/09 07:12:53;;;;;;;4.68;1.20;;;;;;;20.21;100.00;99572.47;5012181;28;20375;-86
2022/09/09 07:15:19;;;;;;;8.48;1.45;;;;;;;20.67;100.00;99567.84;5012182;28;20628;-86
2022/09/09 07:17:45;;;;;;;5.70;1.60;;;;;;;21.01;100.00;99567.16;5012689;28;20062;-86
2022/09/09 07:20:11;;;;;;;9.25;1.73;;;;;;;21.09;100.00;99567.03;5007553;28;20100;-86
2022/09/09 07:22:36;;;;;;;9.25;2.08;;;;;;;21.33;100.00;99571.09;5000889;28;20030;-86
2022/09/09 07:25:02;;;;;;;5.88;1.50;;;;;;;21.28;100.00;99568.16;5003731;28;20038;-85
2022/09/09 07:27:27;;;;;;;6.65;1.58;;;;;;;21.31;100.00;99572.31;4993371;28;20506;-86
2022/09/09 07:29:54;;;;;;;5.72;1.38;;;;;;;20.48;100.00;99572.78;4999915;28;20041;-86
2022/09/09 07:32:20;;;;;;;8.48;1.30;;;;;;;20.85;100.00;99567.41;5008155;28;20554;-85
2022/09/09 07:34:46;;;;;;;10.63;1.77;;;;;;;20.13;100.00;99574.44;5005178;28;20080;-86
2022/09/09 07:37:13;;;;;;;8.25;1.88;;;;;;;20.47;100.00;99576.44;4998956;28;20034;-85
2022/09/09 07:39:39;;;;;;;15.98;1.90;;;;;;;20.77;100.00;99579.03;4992865;28;20542;-85
2022/09/09 07:42:04;;;;;;;6.68;1.70;;;;;;;21.88;100.00;99573.06;4993175;28;20026;-85
2022/09/09 07:44:32;;;;;;;4.68;1.40;;;;;;;24.41;91.90;99575.78;4993052;28;20026;-85
2022/09/09 07:46:57;;;;;;;4.30;1.52;;;;;;;24.06;88.98;99576.13;5012010;28;20034;-85
2022/09/09 07:49:23;;;;;;;6.30;1.95;;;;;;;23.27;92.79;99572.59;5012067;28;20028;-85
2022/09/09 07:51:49;;;;;;;7.60;1.30;;;;;;;24.12;91.28;99574.47;5010904;28;20053;-86
2022/09/09 07:54:17;;;;;;;6.53;1.45;;;;;;;25.03;86.81;99573.31;5012413;28;20479;-86
2022/09/09 07:56:42;;;;;;;4.25;0.90;;;;;;;25.32;81.90;99579.91;5011890;28;20061;-86
2022/09/09 07:59:09;;;;;;;6.03;1.42;;;;;;;25.21;83.18;99583.28;5012278;28;20113;-86
2022/09/09 08:01:39;;;;;;;6.53;1.30;;;;;;;26.03;82.21;99575.03;5012198;28;20113;-86
2022/09/09 08:04:08;;;;;;;6.85;1.80;;;;;;;25.92;74.08;99583.88;5011216;28;20056;-86
2022/09/09 08:06:39;;;;;;;6.28;1.35;;;;;;;23.96;83.23;99591.88;5012397;28;20380;-86
2022/09/09 08:09:05;;;;;;;2.60;0.87;;;;;;;23.68;86.37;99597.50;5010410;28;20026;-86
2022/09/09 08:11:32;;;;;;;6.28;1.30;;;;;;;23.49;86.67;99601.84;4992659;28;20392;-86
2022/09/09 08:13:58;;;;;;;9.65;1.30;;;;;;;23.59;89.02;99601.41;4992685;28;20384;-86
2022/09/09 08:16:30;;;;;;;7.20;1.48;;;;;;;26.14;74.24;99604.91;5011316;28;20026;-86
2022/09/09 08:18:56;;;;;;;;;;;;;;;26.22;73.31;99610.00;5012381;28;20021;-86
2022/09/09 08:21:24;;;;;;;10.75;2.22;;;;;;;23.40;84.45;99605.75;5010910;28;20303;-86
2022/09/09 08:23:52;;;;;;;2.83;0.80;;;;;;;23.78;86.36;99611.31;5011024;28;20472;-86
2022/09/09 08:26:23;;;;;;;6.07;0.80;;;;;;;23.11;85.29;99615.88;4992544;28;20477;-86
2022/09/09 08:28:53;;;;;;;2.03;0.80;;;;;;;22.70;86.91;99616.81;4992377;28;20381;-86
2022/09/09 08:31:23;;;;;;;3.88;1.25;;;;;;;23.25;88.97;99625.53;5008137;28;20104;-87
2022/09/09 08:33:49;;;;;;;3.23;0.80;;;;;;;24.09;82.83;99618.63;5012232;28;20034;-87
2022/09/09 08:36:21;;;;;;;2.88;0.90;;;;;;;23.34;86.78;99627.00;5011848;28;20476;-86
2022/09/09 08:38:53;;;;;;;5.50;1.13;;;;;;;23.57;81.29;99633.78;5010811;28;20021;-86
2022/09/09 08:41:25;;;;;;;6.05;1.23;;;;;;;22.96;86.57;99626.72;5011845;28;20558;-86
2022/09/09 08:44:02;;;;;;;4.68;1.08;;;;;;;22.22;88.59;99635.56;5011814;28;20026;-86
2022/09/09 08:46:39;;;;;;;2.47;0.95;;;;;;;22.31;91.62;99632.53;5011955;28;20028;-86
2022/09/09 08:49:26;;;;;;;4.97;1.65;;;;;;;22.10;92.09;99638.78;5011670;28;20040;-86
2022/09/09 08:51:55;;;;;;;2.88;1.00;;;;;;;21.72;94.15;99639.19;5012337;28;20018;-86
2022/09/09 08:54:20;;;;;;;6.88;0.82;;;;;;;21.04;97.21;99641.50;5002856;28;20058;-86
2022/09/09 08:56:46;;;;;;;3.95;0.80;;;;;;;20.87;99.81;99650.75;4992303;28;20492;-86
2022/09/09 08:59:17;;;;;;;2.33;0.60;;;;;;;21.16;98.93;99649.81;5002845;28;20033;-85
2022/09/09 09:02:04;;;;;;;8.23;0.63;;;;;;;20.91;99.12;99652.88;5010600;28;20084;-85
2022/09/09 09:04:44;;;;;;;3.78;0.80;;;;;;;21.30;98.50;99662.25;5011824;28;20026;-85
2022/09/09 09:07:31;;;;;;;2.38;0.65;;;;;;;21.23;99.73;99665.88;5011662;28;20037;-85
2022/09/09 09:10:14;;;;;;;2.95;0.85;;;;;;;20.98;98.82;99669.75;5011543;28;20030;-86
2022/09/09 09:12:42;;;;;;;3.80;0.43;;;;;;;21.29;100.00;99671.28;5010470;28;20447;-86
2022/09/09 09:15:18;;;;;;;2.22;0.68;;;;;;;21.20;100.00;99678.59;5012042;28;20101;-86
2022/09/09 09:17:43;;;;;;;2.38;0.73;;;;;;;21.26;98.08;99682.34;5011498;28;20026;-86
2022/09/09 09:20:14;;;;;;;4.88;1.15;;;;;;;21.56;98.17;99687.56;5011542;28;20026;-86
2022/09/09 09:22:51;;;;;;;4.15;0.80;;;;;;;21.19;99.27;99692.97;5002903;28;20085;-86
2022/09/09 09:25:31;;;;;;;1.60;0.43;;;;;;;20.78;99.17;99695.41;4991931;28;20038;-86
2022/09/09 09:28:00;;;;;;;2.47;0.85;;;;;;;20.95;100.00;99698.66;4991895;28;20388;-86
2022/09/09 09:30:31;;;;;;;2.17;0.57;;;;;;;21.63;98.78;99699.13;4992010;28;20073;-86
2022/09/09 09:33:05;;;;;;;6.93;0.70;;;;;;;22.03;97.07;99699.41;4991693;28;20034;-86
2022/09/09 09:35:31;;;;;;;4.72;1.00;;;;;;;22.18;93.79;99705.47;4994122;28;20027;-86
2022/09/09 09:37:56;;;;;;;5.03;0.77;;;;;;;22.35;94.43;99714.03;5005892;28;20030;-86
2022/09/09 09:40:22;;;;;;;1.60;0.77;;;;;;;22.13;97.12;99718.59;5014936;28;20029;-86
2022/09/09 09:42:57;;;;;;;3.88;1.52;;;;;;;22.07;95.55;99714.03;5014886;28;20041;-86
2022/09/09 09:45:41;;;;;;;5.10;1.85;;;;;;;21.59;96.51;99728.06;5014873;28;20030;-86
2022/09/09 09:48:12;;;;;;;3.28;1.48;;;;;;;21.42;98.68;99723.16;5014661;28;20025;-86
2022/09/09 09:51:00;;;;;;;4.20;1.83;;;;;;;21.15;99.46;99730.94;5014954;28;20499;-86
2022/09/09 09:53:27;;;;;;;3.28;1.38;;;;;;;21.34;100.00;99734.78;5008623;28;20034;-86
2022/09/09 09:56:00;;;;;;;8.23;2.08;;;;;;;20.75;100.00;99738.47;5014722;28;20057;-86
2022/09/09 09:58:27;;;;;;;8.13;3.97;;;;;;;20.25;100.00;99742.72;5014701;28;20052;-86
2022/09/09 10:00:54;;;;;;;8.10;3.92;;;;;;;20.65;100.00;99743.25;5013909;28;20066;-86
2022/09/09 10:03:28;;;;;;;6.47;3.13;;;;;;;20.84;100.00;99755.22;5014042;28;20030;-86
2022/09/09 10:05:55;;;;;;;7.63;3.92;;;;;;;20.86;100.00;99750.50;5014480;28;20022;-86
2022/09/09 10:08:20;;;;;;;6.68;2.80;;;;;;;20.55;100.00;99751.53;5012812;28;20026;-86
2022/09/09 10:11:01;;;;;;;7.95;2.90;;;;;;;20.69;100.00;99761.38;5008787;28;20503;-86
2022/09/09 10:14:17;;;;;;;5.15;1.92;;;;;;;20.71;100.00;99762.00;5014157;28;20045;-86
2022/09/09 10:17:06;;;;;;;6.18;2.35;;;;;;;21.13;100.00;99755.13;5009783;28;20132;-86
2022/09/09 10:19:34;;;;;;;3.90;1.42;;;;;;;20.90;100.00;99763.28;5013838;28;20045;-86
2022/09/09 10:22:23;;;;;;;2.58;0.90;;;;;;;21.15;100.00;99770.97;5012848;28;20388;-86
2022/09/09 10:25:01;;;;;;;4.70;0.85;;;;;;;21.28;100.00;99770.25;5012691;28;20076;-86
2022/09/09 10:27:53;;;;;;;5.82;1.00;;;;;;;21.47;100.00;99775.00;5001758;28;20472;-86
2022/09/09 10:30:24;;;;;;;1.55;0.80;;;;;;;21.15;100.00;99776.31;5014149;28;20068;-86
2022/09/09 10:33:07;;;;;;;2.08;0.50;;;;;;;21.88;98.69;99778.84;5012663;28;20388;-86
2022/09/09 10:35:38;;;;;;;3.75;1.00;;;;;;;21.47;99.50;99782.22;5013405;28;20511;-86
2022/09/09 10:38:17;;;;;;;5.78;1.02;;;;;;;21.32;98.34;99771.53;5013907;28;20080;-86
2022/09/09 10:40:58;;;;;;;2.40;0.50;;;;;;;22.02;97.11;99787.81;5002987;28;20038;-86
2022/09/09 10:43:29;;;;;;;1.92;0.73;;;;;;;22.04;98.83;99786.59;4994436;28;20357;-86
2022/09/09 10:46:12;;;;;;;3.03;0.52;;;;;;;22.08;97.57;99771.81;4993836;28;20033;-86
2022/09/09 10:48:56;;;;;;;2.95;0.73;;;;;;;22.55;95.15;99778.31;5000858;28;20109;-85
2022/09/09 10:51:23;;;;;;;4.13;0.80;;;;;;;22.51;93.08;99785.09;5013508;28;20109;-86
2022/09/09 10:54:07;;;;;;;1.55;0.70;;;;;;;22.66;93.31;99781.47;5013350;28;20026;-86
2022/09/09 10:56:34;;;;;;;1.67;0.70;;;;;;;22.96;93.71;99785.50;5012465;28;20030;-86
2022/09/09 10:59:05;;;;;;;1.35;0.63;;;;;;;23.02;92.73;99783.91;5012123;28;20108;-86
2022/09/09 11:01:40;;;;;;;4.75;0.60;;;;;;;23.07;91.57;99783.31;5013601;28;20049;-86
2022/09/09 11:04:23;;;;;;;1.90;0.47;;;;;;;22.54;92.56;99789.22;5013672;28;20468;-86
2022/09/09 11:06:53;;;;;;;2.55;0.52;;;;;;;22.77;93.93;99787.06;5013450;28;20034;-86
2022/09/09 11:09:23;;;;;;;3.35;0.70;;;;;;;23.64;90.78;99787.34;5008623;28;20491;-86
2022/09/09 11:11:55;;;;;;;2.70;0.70;;;;;;;23.84;89.15;99776.66;4992003;28;20396;-86
2022/09/09 11:14:50;;;;;;;5.78;0.60;;;;;;;25.88;80.78;99771.69;4993171;28;20069;-86
2022/09/09 11:17:28;;;;;;;3.17;0.50;;;;;;;26.99;72.76;99771.00;4992102;28;20374;-86
2022/09/09 11:19:54;;;;;;;2.40;0.90;;;;;;;26.79;66.48;99771.25;4993496;28;20026;-86
2022/09/09 11:22:31;;;;;;;1.60;0.60;;;;;;;25.29;76.13;99779.16;4993970;28;20307;-87
2022/09/09 11:24:57;;;;;;;4.68;0.80;;;;;;;27.12;70.91;99770.00;4998754;28;20037;-87
2022/09/09 11:28:04;;;;;;;3.45;0.38;;;;;;;28.02;63.60;99774.44;5009990;28;20029;-86
2022/09/09 11:30:40;;;;;;;3.15;1.20;;;;;;;29.23;57.92;99777.28;4993313;28;20057;-87
2022/09/09 11:33:24;;;;;;;2.70;1.02;;;;;;;27.57;65.78;99772.25;4993172;28;20031;-87
2022/09/09 11:36:00;;;;;;;4.22;0.95;;;;;;;28.09;64.33;99775.97;4993071;28;20109;-87
2022/09/09 11:38:40;;;;;;;6.50;1.20;;;;;;;27.17;68.31;99779.03;4995225;28;20022;-87
2022/09/09 11:41:09;;;;;;;2.30;1.00;;;;;;;29.41;60.96;99780.84;5012710;28;20120;-87
2022/09/09 11:43:46;;;;;;;2.33;0.55;;;;;;;28.19;63.24;99780.78;4997919;28;20037;-87
2022/09/09 11:46:15;;;;;;;2.15;0.60;;;;;;;30.31;57.05;99773.63;4993039;28;20026;-87
2022/09/09 11:48:45;;;;;;;1.38;0.60;;;;;;;28.92;59.94;99777.75;4993253;28;20022;-87